createdAt,value
2018-12-30T00:00:31.705Z,10.20
2018-12-30T00:03:01.246Z,10.63
2018-12-30T00:05:30.949Z,8.53
2018-12-30T00:08:00.552Z,10.77
2018-12-30T00:10:29.890Z,8.73
2018-12-30T00:12:59.275Z,8.73
2018-12-30T00:15:28.922Z,8.93
2018-12-30T00:17:58.214Z,9.33
2018-12-30T00:20:27.750Z,8.77
2018-12-30T00:22:57.081Z,8.47
2018-12-30T00:25:26.454Z,10.10
2018-12-30T00:27:55.982Z,8.27
2018-12-30T00:30:25.368Z,7.63
2018-12-30T00:32:54.701Z,10.00
2018-12-30T00:35:24.099Z,9.90
2018-12-30T00:37:53.521Z,8.70
2018-12-30T00:40:23.026Z,9.63
2018-12-30T00:42:52.361Z,10.67
2018-12-30T00:45:21.685Z,11.70
2018-12-30T00:47:51.021Z,10.67
2018-12-30T00:50:20.354Z,14.50
2018-12-30T00:52:49.692Z,10.17
2018-12-30T00:55:19.020Z,10.87
2018-12-30T00:57:48.381Z,11.47
2018-12-30T01:00:17.711Z,10.30
2018-12-30T01:02:47.033Z,12.93
2018-12-30T01:05:16.397Z,11.10
2018-12-30T01:07:45.776Z,11.50
2018-12-30T01:10:15.081Z,10.73
2018-12-30T01:12:44.461Z,16.47
2018-12-30T01:15:13.743Z,15.03
2018-12-30T01:17:43.066Z,9.80
2018-12-30T01:20:12.816Z,15.23
2018-12-30T01:22:42.135Z,14.57
2018-12-30T01:25:11.441Z,10.50
2018-12-30T01:27:40.777Z,17.90
2018-12-30T01:30:10.098Z,10.23
2018-12-30T01:32:39.398Z,13.30
2018-12-30T01:35:08.747Z,12.67
2018-12-30T01:37:38.133Z,12.10
2018-12-30T01:40:07.435Z,6.87
2018-12-30T01:42:36.886Z,10.07
2018-12-30T01:45:06.486Z,9.30
2018-12-30T01:47:35.779Z,8.20
2018-12-30T01:50:05.222Z,7.10
2018-12-30T01:52:34.583Z,10.70
2018-12-30T01:55:04.022Z,8.70
2018-12-30T01:57:33.395Z,10.33
2018-12-30T02:00:02.723Z,7.00
2018-12-30T02:02:32.331Z,8.70
2018-12-30T02:05:01.694Z,9.03
2018-12-30T02:07:31.037Z,7.73
2018-12-30T02:10:00.457Z,4.80
2018-12-30T02:12:29.789Z,4.60
2018-12-30T02:14:59.050Z,4.10
2018-12-30T02:17:28.362Z,7.07
2018-12-30T02:19:57.701Z,7.23
2018-12-30T02:22:26.958Z,8.97
2018-12-30T02:24:56.362Z,3.30
2018-12-30T02:27:25.763Z,4.80
2018-12-30T02:29:55.789Z,4.00
2018-12-30T02:32:25.029Z,4.63
2018-12-30T02:34:54.829Z,7.03
2018-12-30T02:37:24.154Z,12.53
2018-12-30T02:39:53.453Z,34.20
2018-12-30T02:42:22.802Z,45.33
2018-12-30T02:44:52.200Z,6.87
2018-12-30T02:47:21.813Z,15.47
2018-12-30T02:49:51.243Z,11.57
2018-12-30T02:52:20.582Z,7.97
2018-12-30T02:54:49.878Z,4.87
2018-12-30T02:57:19.221Z,4.13
2018-12-30T02:59:48.466Z,2.80
2018-12-30T03:02:17.758Z,23.87
2018-12-30T03:04:47.125Z,5.60
2018-12-30T03:07:16.476Z,4.70
2018-12-30T03:09:45.803Z,2.30
2018-12-30T03:12:15.155Z,1.20
2018-12-30T03:14:44.420Z,1.37
2018-12-30T03:17:13.807Z,0.77
2018-12-30T03:19:43.224Z,1.50
2018-12-30T03:22:12.845Z,1.90
2018-12-30T03:24:42.206Z,1.60
2018-12-30T03:27:11.503Z,4.47
2018-12-30T03:29:40.860Z,1.13
2018-12-30T03:32:10.138Z,2.83
2018-12-30T03:34:39.476Z,1.97
2018-12-30T03:37:08.685Z,0.93
2018-12-30T03:39:37.902Z,0.70
2018-12-30T03:42:07.143Z,0.97
2018-12-30T03:44:36.410Z,0.97
2018-12-30T03:47:05.721Z,0.90
2018-12-30T03:49:34.969Z,1.40
2018-12-30T03:52:08.573Z,1.40
2018-12-30T03:54:35.209Z,1.80
2018-12-30T03:57:04.493Z,1.70
2018-12-30T03:59:33.829Z,1.97
2018-12-30T04:02:03.049Z,2.67
2018-12-30T04:04:32.376Z,2.10
2018-12-30T04:07:01.667Z,2.03
2018-12-30T04:09:30.959Z,1.97
2018-12-30T04:12:00.284Z,1.77
2018-12-30T04:14:30.367Z,2.07
2018-12-30T04:16:59.670Z,2.20
2018-12-30T04:19:28.981Z,2.07
2018-12-30T04:21:58.294Z,2.63
2018-12-30T04:24:27.602Z,1.77
2018-12-30T04:26:56.893Z,2.30
2018-12-30T04:29:26.131Z,2.63
2018-12-30T04:31:55.343Z,2.27
2018-12-30T04:34:24.615Z,2.40
2018-12-30T04:36:53.924Z,3.37
2018-12-30T04:39:23.230Z,1.70
2018-12-30T04:41:52.478Z,2.77
2018-12-30T04:44:21.758Z,2.43
2018-12-30T04:46:51.019Z,2.10
2018-12-30T04:49:20.294Z,2.17
2018-12-30T04:51:49.553Z,2.43
2018-12-30T04:54:18.861Z,3.10
2018-12-30T04:56:48.140Z,2.97
2018-12-30T04:59:17.433Z,2.13
2018-12-30T05:01:46.694Z,2.40
2018-12-30T05:04:15.976Z,2.37
2018-12-30T05:06:45.291Z,2.77
2018-12-30T05:09:14.568Z,2.40
2018-12-30T05:11:43.839Z,2.50
2018-12-30T05:14:13.121Z,2.53
2018-12-30T05:16:42.330Z,3.03
2018-12-30T05:19:11.583Z,2.63
2018-12-30T05:21:40.815Z,4.28
2018-12-30T05:24:10.174Z,3.50
2018-12-30T05:26:39.457Z,2.83
2018-12-30T05:29:08.678Z,3.30
2018-12-30T05:31:37.889Z,2.90
2018-12-30T05:34:07.242Z,3.60
2018-12-30T05:36:36.592Z,2.97
2018-12-30T05:39:07.097Z,3.90
2018-12-30T05:41:36.367Z,2.93
2018-12-30T05:44:05.573Z,2.50
2018-12-30T05:46:34.807Z,3.30
2018-12-30T05:49:04.046Z,3.77
2018-12-30T05:51:33.266Z,3.50
2018-12-30T05:54:02.525Z,3.27
2018-12-30T05:56:32.050Z,3.93
2018-12-30T05:59:01.356Z,2.83
2018-12-30T06:01:30.602Z,2.93
2018-12-30T06:03:59.916Z,3.27
2018-12-30T06:06:29.142Z,4.73
2018-12-30T06:08:58.362Z,2.93
2018-12-30T06:11:27.643Z,3.27
2018-12-30T06:13:56.863Z,2.77
2018-12-30T06:16:26.160Z,2.83
2018-12-30T06:18:55.537Z,2.70
2018-12-30T06:21:24.809Z,3.43
2018-12-30T06:23:54.025Z,2.70
2018-12-30T06:26:23.302Z,3.13
2018-12-30T06:28:52.533Z,2.93
2018-12-30T06:31:21.774Z,3.33
2018-12-30T06:33:51.098Z,4.00
2018-12-30T06:36:20.311Z,3.23
2018-12-30T06:38:49.532Z,3.43
2018-12-30T06:41:18.797Z,3.40
2018-12-30T06:43:48.046Z,3.70
2018-12-30T06:46:17.342Z,3.43
2018-12-30T06:48:46.644Z,3.57
2018-12-30T06:51:15.943Z,2.37
2018-12-30T06:53:45.186Z,3.17
2018-12-30T06:56:14.533Z,3.30
2018-12-30T06:58:43.781Z,3.73
2018-12-30T07:01:13.002Z,3.90
2018-12-30T07:03:42.342Z,4.10
2018-12-30T07:06:11.646Z,4.13
2018-12-30T07:08:40.867Z,3.03
2018-12-30T07:11:10.135Z,2.90
2018-12-30T07:13:39.355Z,3.43
2018-12-30T07:16:08.573Z,3.93
2018-12-30T07:18:37.841Z,3.20
2018-12-30T07:21:07.149Z,3.20
2018-12-30T07:23:36.371Z,3.90
2018-12-30T07:26:05.708Z,3.80
2018-12-30T07:28:35.059Z,4.23
2018-12-30T07:31:04.342Z,3.93
2018-12-30T07:33:33.701Z,4.77
2018-12-30T07:36:02.915Z,4.03
2018-12-30T07:38:32.129Z,5.63
2018-12-30T07:41:01.419Z,6.03
2018-12-30T07:43:30.737Z,3.97
2018-12-30T07:45:59.970Z,3.57
2018-12-30T07:48:29.217Z,3.53
2018-12-30T07:50:58.433Z,3.93
2018-12-30T07:53:27.662Z,4.00
2018-12-30T07:55:56.926Z,5.20
2018-12-30T07:58:26.148Z,4.60
2018-12-30T08:00:55.392Z,3.93
2018-12-30T08:03:24.689Z,4.70
2018-12-30T08:05:53.925Z,4.23
2018-12-30T08:08:23.161Z,3.70
2018-12-30T08:10:52.405Z,3.73
2018-12-30T08:13:21.686Z,3.90
2018-12-30T08:15:51.044Z,3.60
2018-12-30T08:18:20.336Z,4.47
2018-12-30T08:20:49.610Z,4.30
2018-12-30T08:23:21.688Z,3.33
2018-12-30T08:25:49.939Z,3.60
2018-12-30T08:28:25.029Z,4.40
2018-12-30T08:30:50.122Z,4.50
2018-12-30T08:33:19.382Z,4.07
2018-12-30T08:35:48.614Z,3.63
2018-12-30T08:38:17.929Z,4.23
2018-12-30T08:40:47.154Z,3.90
2018-12-30T08:43:17.265Z,2.60
2018-12-30T08:45:46.661Z,3.90
2018-12-30T08:48:15.945Z,3.70
2018-12-30T08:50:45.197Z,4.03
2018-12-30T08:53:14.501Z,4.47
2018-12-30T08:55:43.770Z,3.37
2018-12-30T08:58:13.011Z,3.37
2018-12-30T09:00:42.326Z,2.73
2018-12-30T09:03:11.607Z,3.70
2018-12-30T09:05:40.835Z,3.83
2018-12-30T09:08:10.228Z,3.87
2018-12-30T09:10:39.492Z,3.77
2018-12-30T09:13:08.735Z,3.00
2018-12-30T09:15:37.950Z,3.43
2018-12-30T09:18:07.205Z,4.63
2018-12-30T09:20:36.435Z,4.05
2018-12-30T09:23:05.754Z,3.93
2018-12-30T09:25:35.062Z,4.07
2018-12-30T09:28:04.284Z,3.70
2018-12-30T09:30:33.532Z,3.43
2018-12-30T09:33:02.872Z,3.93
2018-12-30T09:35:33.461Z,4.60
2018-12-30T09:38:02.778Z,5.17
2018-12-30T09:40:32.224Z,2.93
2018-12-30T09:43:01.692Z,4.13
2018-12-30T09:45:31.174Z,4.37
2018-12-30T09:48:00.479Z,3.77
2018-12-30T09:50:31.203Z,3.57
2018-12-30T09:53:00.468Z,3.17
2018-12-30T09:55:30.130Z,4.17
2018-12-30T09:57:59.413Z,2.77
2018-12-30T10:00:30.170Z,4.20
2018-12-30T10:02:59.574Z,3.33
2018-12-30T10:05:28.898Z,2.93
2018-12-30T10:07:58.200Z,5.67
2018-12-30T10:10:30.435Z,3.63
2018-12-30T10:13:00.039Z,2.90
2018-12-30T10:15:29.499Z,3.33
2018-12-30T10:17:58.958Z,3.77
2018-12-30T10:20:28.391Z,3.70
2018-12-30T10:22:58.923Z,3.43
2018-12-30T10:25:28.414Z,5.10
2018-12-30T10:27:57.831Z,5.47
2018-12-30T10:30:27.321Z,3.33
2018-12-30T10:32:57.233Z,5.20
2018-12-30T10:35:26.529Z,3.50
2018-12-30T10:37:56.484Z,6.30
2018-12-30T10:40:26.234Z,4.57
2018-12-30T10:42:55.578Z,2.93
2018-12-30T10:45:24.893Z,3.40
2018-12-30T10:47:54.292Z,3.90
2018-12-30T10:50:23.644Z,4.60
2018-12-30T10:52:52.945Z,4.30
2018-12-30T10:55:22.403Z,4.00
2018-12-30T10:57:51.751Z,2.77
2018-12-30T11:00:21.292Z,8.13
2018-12-30T11:02:50.617Z,4.27
2018-12-30T11:05:19.870Z,3.80
2018-12-30T11:07:49.102Z,3.70
2018-12-30T11:10:18.358Z,4.53
2018-12-30T11:12:47.592Z,5.90
2018-12-30T11:15:18.014Z,3.67
2018-12-30T11:17:48.953Z,3.80
2018-12-30T11:20:18.189Z,2.33
2018-12-30T11:22:50.574Z,2.70
2018-12-30T11:25:20.380Z,3.33
2018-12-30T11:27:49.703Z,3.87
2018-12-30T11:30:18.936Z,6.70
2018-12-30T11:32:48.314Z,3.40
2018-12-30T11:35:17.737Z,3.30
2018-12-30T11:37:47.050Z,2.90
2018-12-30T11:40:16.331Z,1.73
2018-12-30T11:42:45.744Z,2.60
2018-12-30T11:45:15.161Z,2.80
2018-12-30T11:47:44.577Z,4.10
2018-12-30T11:50:13.935Z,2.93
2018-12-30T11:52:43.300Z,3.40
2018-12-30T11:55:12.646Z,2.80
2018-12-30T11:57:41.980Z,2.60
2018-12-30T12:00:11.335Z,3.83
2018-12-30T12:02:40.626Z,3.20
2018-12-30T12:05:09.907Z,2.80
2018-12-30T12:07:39.241Z,2.97
2018-12-30T12:10:08.635Z,2.60
2018-12-30T12:12:37.939Z,3.07
2018-12-30T12:15:07.453Z,3.50
2018-12-30T12:17:36.752Z,2.77
2018-12-30T12:20:06.266Z,3.17
2018-12-30T12:22:35.521Z,2.77
2018-12-30T12:25:05.197Z,3.40
2018-12-30T12:27:34.562Z,3.23
2018-12-30T12:30:06.153Z,3.07
2018-12-30T12:32:35.543Z,3.70
2018-12-30T12:35:05.035Z,3.67
2018-12-30T12:37:34.846Z,4.83
2018-12-30T12:40:04.384Z,3.20
2018-12-30T12:42:33.696Z,3.13
2018-12-30T12:45:02.938Z,3.30
2018-12-30T12:47:34.538Z,4.60
2018-12-30T12:50:03.754Z,3.73
2018-12-30T12:52:32.989Z,3.20
2018-12-30T12:55:02.279Z,3.03
2018-12-30T12:57:31.508Z,3.83
2018-12-30T13:00:00.757Z,4.13
2018-12-30T13:02:30.181Z,3.33
2018-12-30T13:04:59.441Z,4.77
2018-12-30T13:07:28.688Z,3.50
2018-12-30T13:09:57.948Z,5.80
2018-12-30T13:12:27.356Z,4.37
2018-12-30T13:14:56.579Z,3.20
2018-12-30T13:17:25.915Z,4.07
2018-12-30T13:19:55.219Z,3.47
2018-12-30T13:22:24.542Z,2.93
2018-12-30T13:24:53.809Z,3.17
2018-12-30T13:27:23.065Z,2.80
2018-12-30T13:29:52.313Z,2.73
2018-12-30T13:32:21.594Z,3.43
2018-12-30T13:34:50.902Z,3.27
2018-12-30T13:37:20.118Z,3.13
2018-12-30T13:39:49.398Z,2.97
2018-12-30T13:42:18.631Z,3.17
2018-12-30T13:44:47.875Z,3.37
2018-12-30T13:47:17.221Z,2.60
2018-12-30T13:49:46.569Z,4.37
2018-12-30T13:52:15.830Z,2.70
2018-12-30T13:54:47.827Z,2.40
2018-12-30T13:57:16.096Z,3.40
2018-12-30T13:59:45.334Z,3.03
2018-12-30T14:02:14.694Z,2.97
2018-12-30T14:04:43.919Z,2.57
2018-12-30T14:07:13.153Z,2.77
2018-12-30T14:09:42.461Z,2.33
2018-12-30T14:12:11.791Z,3.20
2018-12-30T14:14:41.025Z,6.37
2018-12-30T14:17:10.342Z,3.10
2018-12-30T14:19:39.590Z,3.40
2018-12-30T14:22:09.029Z,2.33
2018-12-30T14:24:38.323Z,2.90
2018-12-30T14:27:08.370Z,2.50
2018-12-30T14:29:37.599Z,2.70
2018-12-30T14:32:06.843Z,2.70
2018-12-30T14:34:36.177Z,2.83
2018-12-30T14:37:06.815Z,2.70
2018-12-30T14:39:36.085Z,2.73
2018-12-30T14:42:05.339Z,3.65
2018-12-30T14:44:34.694Z,3.20
2018-12-30T14:47:04.086Z,2.47
2018-12-30T14:49:33.360Z,3.07
2018-12-30T14:52:02.656Z,3.90
2018-12-30T14:54:32.391Z,3.47
2018-12-30T14:57:01.716Z,3.27
2018-12-30T14:59:31.461Z,3.77
2018-12-30T15:02:00.774Z,3.27
2018-12-30T15:04:30.099Z,3.13
2018-12-30T15:06:59.434Z,3.67
2018-12-30T15:09:35.490Z,3.23
2018-12-30T15:11:59.740Z,3.37
2018-12-30T15:14:29.078Z,3.37
2018-12-30T15:17:46.433Z,3.87
2018-12-30T15:20:15.736Z,2.90
2018-12-30T15:22:45.360Z,3.57
2018-12-30T15:25:14.810Z,4.28
2018-12-30T15:27:44.064Z,3.60
2018-12-30T15:30:13.475Z,3.90
2018-12-30T15:32:42.837Z,3.33
2018-12-30T15:35:12.176Z,3.67
2018-12-30T15:37:41.502Z,3.13
2018-12-30T15:40:10.841Z,4.10
2018-12-30T15:42:40.143Z,2.80
2018-12-30T15:45:09.435Z,3.80
2018-12-30T15:47:38.741Z,3.60
2018-12-30T15:50:08.802Z,3.33
2018-12-30T15:52:38.189Z,3.70
2018-12-30T15:55:07.622Z,2.87
2018-12-30T15:57:36.882Z,3.80
2018-12-30T16:00:07.523Z,3.80
2018-12-30T16:02:36.768Z,3.53
2018-12-30T16:05:06.176Z,3.83
2018-12-30T16:07:35.503Z,3.60
2018-12-30T16:10:06.061Z,4.13
2018-12-30T16:12:35.401Z,2.20
2018-12-30T16:15:05.194Z,4.57
2018-12-30T16:17:34.494Z,3.27
2018-12-30T16:20:04.254Z,3.10
2018-12-30T16:22:33.645Z,4.60
2018-12-30T16:25:02.903Z,3.10
2018-12-30T16:27:32.141Z,3.50
2018-12-30T16:30:01.472Z,3.03
2018-12-30T16:32:31.125Z,2.83
2018-12-30T16:35:00.443Z,2.60
2018-12-30T16:37:29.775Z,3.67
2018-12-30T16:39:59.080Z,4.83
2018-12-30T16:42:28.294Z,3.97
2018-12-30T16:44:57.575Z,4.83
2018-12-30T16:47:26.858Z,3.60
2018-12-30T16:49:56.304Z,3.73
2018-12-30T16:52:25.603Z,3.73
2018-12-30T16:54:54.929Z,2.77
2018-12-30T16:57:24.247Z,3.53
2018-12-30T16:59:53.494Z,3.50
2018-12-30T17:02:22.706Z,2.97
2018-12-30T17:04:51.962Z,3.37
2018-12-30T17:07:21.245Z,3.17
2018-12-30T17:09:50.616Z,2.83
2018-12-30T17:12:19.990Z,3.30
2018-12-30T17:14:49.256Z,3.10
2018-12-30T17:17:18.659Z,2.90
2018-12-30T17:19:48.023Z,3.47
2018-12-30T17:22:17.306Z,3.23
2018-12-30T17:24:46.541Z,8.20
2018-12-30T17:27:15.849Z,4.10
2018-12-30T17:29:45.165Z,6.20
2018-12-30T17:32:14.618Z,5.70
2018-12-30T17:34:44.038Z,7.33
2018-12-30T17:37:13.312Z,5.03
2018-12-30T17:39:42.611Z,4.40
2018-12-30T17:42:11.875Z,3.30
2018-12-30T17:44:41.196Z,3.80
2018-12-30T17:47:10.473Z,3.50
2018-12-30T17:49:40.667Z,3.27
2018-12-30T17:52:10.409Z,2.97
2018-12-30T17:54:39.706Z,3.70
2018-12-30T17:57:10.335Z,4.67
2018-12-30T17:59:39.708Z,4.67
2018-12-30T18:02:08.950Z,4.20
2018-12-30T18:04:38.164Z,4.03
2018-12-30T18:07:07.416Z,3.27
2018-12-30T18:09:36.621Z,4.40
2018-12-30T18:12:05.862Z,3.60
2018-12-30T18:14:35.344Z,4.13
2018-12-30T18:17:04.590Z,4.47
2018-12-30T18:19:33.830Z,4.73
2018-12-30T18:22:03.139Z,3.20
2018-12-30T18:24:32.507Z,3.90
2018-12-30T18:27:01.897Z,3.40
2018-12-30T18:29:31.184Z,4.17
2018-12-30T18:32:00.494Z,5.27
2018-12-30T18:34:29.829Z,3.67
2018-12-30T18:36:59.266Z,4.10
2018-12-30T18:39:28.634Z,3.53
2018-12-30T18:41:57.888Z,4.20
2018-12-30T18:44:27.349Z,4.17
2018-12-30T18:46:56.661Z,3.10
2018-12-30T18:49:25.881Z,3.30
2018-12-30T18:51:55.231Z,3.07
2018-12-30T18:54:24.521Z,3.70
2018-12-30T18:56:53.791Z,4.37
2018-12-30T18:59:23.213Z,4.03
2018-12-30T19:01:53.594Z,4.17
2018-12-30T19:04:22.849Z,3.50
2018-12-30T19:06:52.126Z,3.63
2018-12-30T19:09:21.372Z,4.40
2018-12-30T19:11:50.816Z,3.73
2018-12-30T19:14:20.179Z,4.37
2018-12-30T19:16:49.437Z,8.77
2018-12-30T19:19:18.843Z,5.43
2018-12-30T19:21:48.129Z,4.10
2018-12-30T19:24:17.758Z,5.95
2018-12-30T19:26:47.108Z,4.43
2018-12-30T19:29:16.587Z,7.03
2018-12-30T19:31:45.837Z,4.67
2018-12-30T19:34:15.110Z,4.80
2018-12-30T19:36:44.510Z,4.50
2018-12-30T19:39:13.778Z,3.50
2018-12-30T19:41:43.117Z,5.33
2018-12-30T19:44:12.491Z,5.63
2018-12-30T19:46:41.849Z,4.00
2018-12-30T19:49:11.110Z,4.37
2018-12-30T19:51:40.522Z,4.67
2018-12-30T19:54:09.769Z,5.13
2018-12-30T19:56:39.024Z,3.80
2018-12-30T19:59:08.310Z,4.80
2018-12-30T20:01:37.634Z,4.60
2018-12-30T20:04:06.945Z,5.57
2018-12-30T20:06:36.305Z,4.03
2018-12-30T20:09:07.603Z,5.73
2018-12-30T20:11:36.901Z,5.23
2018-12-30T20:14:07.060Z,5.30
2018-12-30T20:16:36.378Z,4.87
2018-12-30T20:19:05.634Z,4.43
2018-12-30T20:21:34.984Z,4.70
2018-12-30T20:24:04.299Z,4.80
2018-12-30T20:26:33.540Z,5.20
2018-12-30T20:29:02.791Z,5.63
2018-12-30T20:31:32.111Z,5.03
2018-12-30T20:34:01.430Z,6.07
2018-12-30T20:36:30.707Z,4.83
2018-12-30T20:39:00.063Z,9.37
2018-12-30T20:41:29.565Z,7.73
2018-12-30T20:43:58.874Z,6.63
2018-12-30T20:46:28.166Z,6.20
2018-12-30T20:48:57.500Z,4.90
2018-12-30T20:51:26.862Z,5.97
2018-12-30T20:53:56.098Z,4.70
2018-12-30T20:56:25.397Z,4.83
2018-12-30T20:58:54.845Z,5.00
2018-12-30T21:01:24.135Z,5.30
2018-12-30T21:03:53.462Z,5.67
2018-12-30T21:06:22.789Z,7.67
2018-12-30T21:08:52.022Z,5.17
2018-12-30T21:11:21.330Z,4.27
2018-12-30T21:13:50.728Z,4.70
2018-12-30T21:16:20.090Z,5.50
2018-12-30T21:18:49.466Z,4.20
2018-12-30T21:21:18.838Z,5.17
2018-12-30T21:23:48.074Z,5.33
2018-12-30T21:26:17.332Z,5.73
2018-12-30T21:28:46.745Z,5.50
2018-12-30T21:31:16.093Z,6.67
2018-12-30T21:33:45.445Z,6.13
2018-12-30T21:36:14.786Z,6.10
2018-12-30T21:38:44.033Z,6.27
2018-12-30T21:41:13.291Z,5.87
2018-12-30T21:43:42.598Z,5.10
2018-12-30T21:46:11.826Z,6.50
2018-12-30T21:48:41.066Z,4.70
2018-12-30T21:51:10.486Z,5.63
2018-12-30T21:53:39.805Z,5.63
2018-12-30T21:56:09.123Z,6.10
2018-12-30T21:58:38.392Z,5.80
2018-12-30T22:01:07.691Z,5.30
2018-12-30T22:03:37.034Z,5.20
2018-12-30T22:06:06.361Z,5.47
2018-12-30T22:08:35.709Z,4.93
2018-12-30T22:11:04.983Z,6.53
2018-12-30T22:13:37.427Z,6.17
2018-12-30T22:16:06.692Z,5.87
2018-12-30T22:18:35.936Z,4.27
2018-12-30T22:21:05.203Z,5.93
2018-12-30T22:23:34.526Z,4.90
2018-12-30T22:26:03.918Z,5.20
2018-12-30T22:28:33.290Z,5.77
2018-12-30T22:31:02.568Z,5.80
2018-12-30T22:33:31.972Z,5.47
2018-12-30T22:36:01.274Z,4.93
2018-12-30T22:38:30.660Z,5.73
2018-12-30T22:40:59.957Z,7.77
2018-12-30T22:43:29.379Z,5.50
2018-12-30T22:45:58.709Z,5.47
2018-12-30T22:48:28.019Z,5.47
2018-12-30T22:50:57.285Z,5.60
2018-12-30T22:53:26.559Z,5.47
2018-12-30T22:55:55.876Z,5.90
2018-12-30T22:58:25.262Z,5.50
2018-12-30T23:01:00.420Z,5.37
2018-12-30T23:03:29.673Z,5.50
2018-12-30T23:05:58.963Z,5.60
2018-12-30T23:08:28.219Z,5.40
2018-12-30T23:10:57.473Z,5.60
2018-12-30T23:13:26.742Z,5.03
2018-12-30T23:15:56.134Z,5.50
2018-12-30T23:18:25.397Z,5.30
2018-12-30T23:20:54.661Z,4.63
2018-12-30T23:23:24.013Z,4.67
2018-12-30T23:25:53.275Z,5.60
2018-12-30T23:28:25.541Z,4.77
2018-12-30T23:30:54.881Z,5.40
2018-12-30T23:33:24.168Z,5.27
2018-12-30T23:35:53.422Z,5.40
2018-12-30T23:38:22.845Z,4.70
2018-12-30T23:40:52.190Z,5.20
2018-12-30T23:43:21.518Z,4.50
2018-12-30T23:45:50.915Z,4.53
2018-12-30T23:48:20.315Z,4.60
2018-12-30T23:50:49.675Z,5.23
2018-12-30T23:53:19.082Z,5.50
2018-12-30T23:55:48.342Z,4.80
2018-12-30T23:58:17.575Z,5.17
